sensor_id;sensor_type;location;lat;lon;timestamp;P1;durP1;ratioP1;P2;durP2;ratioP2
59105;SDS011;44891;50.204;8.132;2023-08-20T00:02:14;12.45;;;7.35;;
59105;SDS011;44891;50.204;8.132;2023-08-20T00:06:21;13.43;;;8.13;;
59105;SDS011;44891;50.204;8.132;2023-08-20T00:10:24;13.32;;;7.40;;
59105;SDS011;44891;50.204;8.132;2023-08-20T00:18:59;10.47;;;7.90;;
59105;SDS011;44891;50.204;8.132;2023-08-20T00:23:03;10.75;;;7.43;;
59105;SDS011;44891;50.204;8.132;2023-08-20T00:27:05;12.52;;;8.30;;
59105;SDS011;44891;50.204;8.132;2023-08-20T00:31:08;10.95;;;7.93;;
59105;SDS011;44891;50.204;8.132;2023-08-20T00:35:10;10.68;;;7.63;;
59105;SDS011;44891;50.204;8.132;2023-08-20T00:39:14;11.73;;;8.45;;
59105;SDS011;44891;50.204;8.132;2023-08-20T00:43:16;14.23;;;8.50;;
59105;SDS011;44891;50.204;8.132;2023-08-20T00:47:19;11.98;;;8.65;;
59105;SDS011;44891;50.204;8.132;2023-08-20T00:51:22;14.82;;;8.32;;
59105;SDS011;44891;50.204;8.132;2023-08-20T00:55:26;12.30;;;9.27;;
59105;SDS011;44891;50.204;8.132;2023-08-20T00:59:28;15.95;;;9.30;;
59105;SDS011;44891;50.204;8.132;2023-08-20T01:03:32;13.07;;;9.52;;
59105;SDS011;44891;50.204;8.132;2023-08-20T01:07:38;11.13;;;9.07;;
59105;SDS011;44891;50.204;8.132;2023-08-20T01:11:49;11.82;;;8.18;;
59105;SDS011;44891;50.204;8.132;2023-08-20T01:15:59;14.20;;;7.85;;
59105;SDS011;44891;50.204;8.132;2023-08-20T01:20:01;11.70;;;7.85;;
59105;SDS011;44891;50.204;8.132;2023-08-20T01:24:10;13.70;;;7.72;;
59105;SDS011;44891;50.204;8.132;2023-08-20T01:28:22;13.57;;;8.70;;
59105;SDS011;44891;50.204;8.132;2023-08-20T01:32:29;11.75;;;7.85;;
59105;SDS011;44891;50.204;8.132;2023-08-20T01:36:31;11.65;;;8.20;;
59105;SDS011;44891;50.204;8.132;2023-08-20T01:40:33;11.57;;;7.97;;
59105;SDS011;44891;50.204;8.132;2023-08-20T01:44:37;11.00;;;8.02;;
59105;SDS011;44891;50.204;8.132;2023-08-20T01:48:39;12.60;;;8.32;;
59105;SDS011;44891;50.204;8.132;2023-08-20T01:52:41;15.15;;;8.63;;
59105;SDS011;44891;50.204;8.132;2023-08-20T01:56:43;14.88;;;9.02;;
59105;SDS011;44891;50.204;8.132;2023-08-20T02:00:47;13.90;;;9.80;;
59105;SDS011;44891;50.204;8.132;2023-08-20T02:04:49;18.52;;;9.88;;
59105;SDS011;44891;50.204;8.132;2023-08-20T02:08:51;14.27;;;9.35;;
59105;SDS011;44891;50.204;8.132;2023-08-20T02:12:53;15.80;;;9.30;;
59105;SDS011;44891;50.204;8.132;2023-08-20T02:16:57;14.07;;;9.40;;
59105;SDS011;44891;50.204;8.132;2023-08-20T02:20:59;12.15;;;8.93;;
59105;SDS011;44891;50.204;8.132;2023-08-20T02:25:02;12.27;;;9.05;;
59105;SDS011;44891;50.204;8.132;2023-08-20T02:29:04;11.57;;;8.75;;
59105;SDS011;44891;50.204;8.132;2023-08-20T02:33:08;12.40;;;8.10;;
59105;SDS011;44891;50.204;8.132;2023-08-20T02:37:10;13.52;;;8.35;;
59105;SDS011;44891;50.204;8.132;2023-08-20T02:41:12;9.45;;;7.88;;
59105;SDS011;44891;50.204;8.132;2023-08-20T02:45:16;13.93;;;8.95;;
59105;SDS011;44891;50.204;8.132;2023-08-20T02:49:19;12.80;;;8.48;;
59105;SDS011;44891;50.204;8.132;2023-08-20T02:53:21;11.18;;;7.82;;
59105;SDS011;44891;50.204;8.132;2023-08-20T02:57:24;12.38;;;7.78;;
59105;SDS011;44891;50.204;8.132;2023-08-20T03:01:26;9.35;;;7.82;;
59105;SDS011;44891;50.204;8.132;2023-08-20T03:05:31;9.65;;;7.43;;
59105;SDS011;44891;50.204;8.132;2023-08-20T03:09:33;11.32;;;7.65;;
59105;SDS011;44891;50.204;8.132;2023-08-20T03:13:36;14.52;;;8.77;;
59105;SDS011;44891;50.204;8.132;2023-08-20T03:17:38;13.25;;;8.82;;
59105;SDS011;44891;50.204;8.132;2023-08-20T03:21:41;10.05;;;8.35;;
59105;SDS011;44891;50.204;8.132;2023-08-20T03:25:43;12.90;;;8.02;;
59105;SDS011;44891;50.204;8.132;2023-08-20T03:29:45;12.38;;;8.43;;
59105;SDS011;44891;50.204;8.132;2023-08-20T03:33:48;11.27;;;8.15;;
59105;SDS011;44891;50.204;8.132;2023-08-20T03:37:51;9.90;;;7.97;;
59105;SDS011;44891;50.204;8.132;2023-08-20T03:41:53;9.27;;;8.18;;
59105;SDS011;44891;50.204;8.132;2023-08-20T03:45:56;11.07;;;7.95;;
59105;SDS011;44891;50.204;8.132;2023-08-20T03:49:59;12.75;;;9.40;;
59105;SDS011;44891;50.204;8.132;2023-08-20T03:54:03;13.52;;;8.73;;
59105;SDS011;44891;50.204;8.132;2023-08-20T03:58:06;17.70;;;11.30;;
59105;SDS011;44891;50.204;8.132;2023-08-20T04:02:09;18.50;;;12.95;;
59105;SDS011;44891;50.204;8.132;2023-08-20T04:06:11;13.80;;;10.88;;
59105;SDS011;44891;50.204;8.132;2023-08-20T04:10:15;14.63;;;10.98;;
59105;SDS011;44891;50.204;8.132;2023-08-20T04:14:17;10.70;;;7.75;;
59105;SDS011;44891;50.204;8.132;2023-08-20T04:18:20;11.70;;;8.50;;
59105;SDS011;44891;50.204;8.132;2023-08-20T04:22:22;11.52;;;8.55;;
59105;SDS011;44891;50.204;8.132;2023-08-20T04:26:28;11.88;;;8.50;;
59105;SDS011;44891;50.204;8.132;2023-08-20T04:30:30;12.05;;;8.25;;
59105;SDS011;44891;50.204;8.132;2023-08-20T04:34:33;13.82;;;8.43;;
59105;SDS011;44891;50.204;8.132;2023-08-20T04:38:35;10.93;;;8.23;;
59105;SDS011;44891;50.204;8.132;2023-08-20T04:42:39;10.88;;;9.30;;
59105;SDS011;44891;50.204;8.132;2023-08-20T04:46:41;8.90;;;7.53;;
59105;SDS011;44891;50.204;8.132;2023-08-20T04:50:44;11.50;;;7.65;;
59105;SDS011;44891;50.204;8.132;2023-08-20T04:54:46;11.55;;;8.10;;
59105;SDS011;44891;50.204;8.132;2023-08-20T04:58:50;11.57;;;8.60;;
59105;SDS011;44891;50.204;8.132;2023-08-20T05:03:12;12.57;;;8.02;;
59105;SDS011;44891;50.204;8.132;2023-08-20T05:07:14;10.77;;;8.35;;
59105;SDS011;44891;50.204;8.132;2023-08-20T05:11:16;11.18;;;7.90;;
59105;SDS011;44891;50.204;8.132;2023-08-20T05:15:20;14.68;;;8.60;;
59105;SDS011;44891;50.204;8.132;2023-08-20T05:19:23;12.80;;;8.30;;
59105;SDS011;44891;50.204;8.132;2023-08-20T05:23:25;11.52;;;8.40;;
59105;SDS011;44891;50.204;8.132;2023-08-20T05:27:27;12.65;;;8.48;;
59105;SDS011;44891;50.204;8.132;2023-08-20T05:31:33;9.63;;;7.97;;
59105;SDS011;44891;50.204;8.132;2023-08-20T05:35:35;12.43;;;8.75;;
59105;SDS011;44891;50.204;8.132;2023-08-20T05:39:40;9.88;;;7.75;;
59105;SDS011;44891;50.204;8.132;2023-08-20T05:43:42;13.02;;;7.97;;
59105;SDS011;44891;50.204;8.132;2023-08-20T05:47:46;10.15;;;7.97;;
59105;SDS011;44891;50.204;8.132;2023-08-20T05:51:49;10.30;;;8.20;;
59105;SDS011;44891;50.204;8.132;2023-08-20T05:55:51;11.82;;;8.48;;
59105;SDS011;44891;50.204;8.132;2023-08-20T05:59:54;11.15;;;8.40;;
59105;SDS011;44891;50.204;8.132;2023-08-20T06:03:57;14.65;;;9.23;;
59105;SDS011;44891;50.204;8.132;2023-08-20T06:08:00;15.73;;;9.50;;
59105;SDS011;44891;50.204;8.132;2023-08-20T06:12:02;13.07;;;9.77;;
59105;SDS011;44891;50.204;8.132;2023-08-20T06:16:04;15.65;;;9.82;;
59105;SDS011;44891;50.204;8.132;2023-08-20T06:20:10;12.20;;;9.68;;
59105;SDS011;44891;50.204;8.132;2023-08-20T06:24:13;13.82;;;9.23;;
59105;SDS011;44891;50.204;8.132;2023-08-20T06:28:15;11.20;;;9.20;;
59105;SDS011;44891;50.204;8.132;2023-08-20T06:32:17;11.63;;;8.98;;
59105;SDS011;44891;50.204;8.132;2023-08-20T06:36:21;11.82;;;9.02;;
59105;SDS011;44891;50.204;8.132;2023-08-20T06:40:23;11.07;;;9.80;;
59105;SDS011;44891;50.204;8.132;2023-08-20T06:44:25;11.18;;;9.60;;
59105;SDS011;44891;50.204;8.132;2023-08-20T06:48:27;13.40;;;9.95;;
59105;SDS011;44891;50.204;8.132;2023-08-20T06:52:30;14.10;;;9.95;;
59105;SDS011;44891;50.204;8.132;2023-08-20T06:56:32;16.70;;;13.43;;
59105;SDS011;44891;50.204;8.132;2023-08-20T07:00:34;14.70;;;11.13;;
59105;SDS011;44891;50.204;8.132;2023-08-20T07:04:37;15.52;;;10.68;;
59105;SDS011;44891;50.204;8.132;2023-08-20T07:08:40;14.38;;;10.63;;
59105;SDS011;44891;50.204;8.132;2023-08-20T07:12:42;16.77;;;11.27;;
59105;SDS011;44891;50.204;8.132;2023-08-20T07:16:44;14.50;;;10.45;;
59105;SDS011;44891;50.204;8.132;2023-08-20T07:20:46;14.23;;;10.30;;
59105;SDS011;44891;50.204;8.132;2023-08-20T07:24:50;15.63;;;10.98;;
59105;SDS011;44891;50.204;8.132;2023-08-20T07:28:52;16.40;;;10.48;;
59105;SDS011;44891;50.204;8.132;2023-08-20T07:33:00;14.85;;;11.77;;
59105;SDS011;44891;50.204;8.132;2023-08-20T07:37:03;14.93;;;11.48;;
59105;SDS011;44891;50.204;8.132;2023-08-20T07:41:07;15.00;;;10.70;;
59105;SDS011;44891;50.204;8.132;2023-08-20T07:45:09;17.83;;;12.25;;
59105;SDS011;44891;50.204;8.132;2023-08-20T07:49:11;16.33;;;11.48;;
59105;SDS011;44891;50.204;8.132;2023-08-20T07:53:13;15.63;;;11.82;;
59105;SDS011;44891;50.204;8.132;2023-08-20T07:57:17;17.70;;;12.32;;
59105;SDS011;44891;50.204;8.132;2023-08-20T08:01:19;13.88;;;12.05;;
59105;SDS011;44891;50.204;8.132;2023-08-20T08:05:21;13.50;;;11.68;;
59105;SDS011;44891;50.204;8.132;2023-08-20T08:09:26;14.85;;;11.40;;
59105;SDS011;44891;50.204;8.132;2023-08-20T08:13:30;14.68;;;12.10;;
59105;SDS011;44891;50.204;8.132;2023-08-20T08:17:32;15.57;;;11.70;;
59105;SDS011;44891;50.204;8.132;2023-08-20T08:21:34;16.08;;;11.88;;
59105;SDS011;44891;50.204;8.132;2023-08-20T08:25:36;12.68;;;11.02;;
59105;SDS011;44891;50.204;8.132;2023-08-20T08:29:40;15.95;;;12.00;;
59105;SDS011;44891;50.204;8.132;2023-08-20T08:33:42;15.20;;;11.63;;
59105;SDS011;44891;50.204;8.132;2023-08-20T08:37:44;14.98;;;11.50;;
59105;SDS011;44891;50.204;8.132;2023-08-20T08:41:46;13.07;;;11.40;;
59105;SDS011;44891;50.204;8.132;2023-08-20T08:45:54;16.13;;;11.48;;
59105;SDS011;44891;50.204;8.132;2023-08-20T08:49:58;13.90;;;10.88;;
59105;SDS011;44891;50.204;8.132;2023-08-20T08:54:01;15.15;;;11.45;;
59105;SDS011;44891;50.204;8.132;2023-08-20T08:58:04;13.32;;;10.30;;
59105;SDS011;44891;50.204;8.132;2023-08-20T09:02:09;14.38;;;11.40;;
59105;SDS011;44891;50.204;8.132;2023-08-20T09:06:12;12.20;;;10.77;;
59105;SDS011;44891;50.204;8.132;2023-08-20T09:10:16;15.32;;;10.82;;
59105;SDS011;44891;50.204;8.132;2023-08-20T09:14:20;12.68;;;10.00;;
59105;SDS011;44891;50.204;8.132;2023-08-20T09:18:26;14.32;;;9.63;;
59105;SDS011;44891;50.204;8.132;2023-08-20T09:22:28;12.18;;;9.43;;
59105;SDS011;44891;50.204;8.132;2023-08-20T09:26:30;12.88;;;9.40;;
59105;SDS011;44891;50.204;8.132;2023-08-20T09:30:32;10.63;;;9.10;;
59105;SDS011;44891;50.204;8.132;2023-08-20T09:34:39;12.00;;;8.88;;
59105;SDS011;44891;50.204;8.132;2023-08-20T09:38:41;8.95;;;7.30;;
59105;SDS011;44891;50.204;8.132;2023-08-20T09:42:43;8.70;;;7.82;;
59105;SDS011;44891;50.204;8.132;2023-08-20T09:46:46;9.73;;;7.47;;
59105;SDS011;44891;50.204;8.132;2023-08-20T09:50:50;9.90;;;7.68;;
59105;SDS011;44891;50.204;8.132;2023-08-20T09:54:58;8.73;;;7.40;;
59105;SDS011;44891;50.204;8.132;2023-08-20T09:59:02;10.80;;;7.88;;
59105;SDS011;44891;50.204;8.132;2023-08-20T10:03:05;11.85;;;8.50;;
59105;SDS011;44891;50.204;8.132;2023-08-20T10:07:09;9.88;;;7.68;;
59105;SDS011;44891;50.204;8.132;2023-08-20T10:11:11;9.90;;;7.75;;
59105;SDS011;44891;50.204;8.132;2023-08-20T10:15:14;10.18;;;7.65;;
59105;SDS011;44891;50.204;8.132;2023-08-20T10:19:16;9.82;;;7.68;;
59105;SDS011;44891;50.204;8.132;2023-08-20T10:23:21;8.02;;;7.22;;
59105;SDS011;44891;50.204;8.132;2023-08-20T10:27:24;8.02;;;7.22;;
59105;SDS011;44891;50.204;8.132;2023-08-20T10:31:27;7.20;;;6.50;;
59105;SDS011;44891;50.204;8.132;2023-08-20T10:35:46;6.50;;;5.85;;
59105;SDS011;44891;50.204;8.132;2023-08-20T10:39:54;7.43;;;5.22;;
59105;SDS011;44891;50.204;8.132;2023-08-20T10:43:58;6.70;;;6.00;;
59105;SDS011;44891;50.204;8.132;2023-08-20T10:48:01;7.28;;;6.20;;
59105;SDS011;44891;50.204;8.132;2023-08-20T10:52:04;8.30;;;6.95;;
59105;SDS011;44891;50.204;8.132;2023-08-20T10:56:10;6.88;;;6.10;;
59105;SDS011;44891;50.204;8.132;2023-08-20T11:00:15;6.93;;;6.22;;
59105;SDS011;44891;50.204;8.132;2023-08-20T11:04:18;6.60;;;5.95;;
59105;SDS011;44891;50.204;8.132;2023-08-20T11:08:21;7.60;;;5.90;;
59105;SDS011;44891;50.204;8.132;2023-08-20T11:12:24;8.75;;;6.63;;
59105;SDS011;44891;50.204;8.132;2023-08-20T11:16:26;8.70;;;7.35;;
59105;SDS011;44891;50.204;8.132;2023-08-20T11:20:29;7.68;;;6.85;;
59105;SDS011;44891;50.204;8.132;2023-08-20T11:24:32;10.10;;;7.55;;
59105;SDS011;44891;50.204;8.132;2023-08-20T11:28:36;7.97;;;7.18;;
59105;SDS011;44891;50.204;8.132;2023-08-20T11:32:38;9.95;;;7.22;;
59105;SDS011;44891;50.204;8.132;2023-08-20T11:36:40;8.27;;;7.15;;
59105;SDS011;44891;50.204;8.132;2023-08-20T11:40:42;8.80;;;7.20;;
59105;SDS011;44891;50.204;8.132;2023-08-20T11:44:46;8.20;;;7.40;;
59105;SDS011;44891;50.204;8.132;2023-08-20T11:49:01;9.38;;;7.00;;
59105;SDS011;44891;50.204;8.132;2023-08-20T11:53:04;7.60;;;6.50;;
59105;SDS011;44891;50.204;8.132;2023-08-20T11:57:06;8.75;;;7.07;;
59105;SDS011;44891;50.204;8.132;2023-08-20T12:01:10;7.80;;;7.00;;
59105;SDS011;44891;50.204;8.132;2023-08-20T12:05:18;8.80;;;6.90;;
59105;SDS011;44891;50.204;8.132;2023-08-20T12:09:20;7.20;;;6.05;;
59105;SDS011;44891;50.204;8.132;2023-08-20T12:13:23;7.78;;;6.00;;
59105;SDS011;44891;50.204;8.132;2023-08-20T12:17:28;7.93;;;6.68;;
59105;SDS011;44891;50.204;8.132;2023-08-20T12:21:30;6.82;;;5.90;;
59105;SDS011;44891;50.204;8.132;2023-08-20T12:25:32;7.80;;;5.93;;
59105;SDS011;44891;50.204;8.132;2023-08-20T12:29:36;6.35;;;5.60;;
59105;SDS011;44891;50.204;8.132;2023-08-20T12:33:40;6.43;;;5.70;;
59105;SDS011;44891;50.204;8.132;2023-08-20T12:37:42;6.43;;;4.90;;
59105;SDS011;44891;50.204;8.132;2023-08-20T12:41:44;6.88;;;5.22;;
59105;SDS011;44891;50.204;8.132;2023-08-20T12:45:46;7.43;;;5.60;;
59105;SDS011;44891;50.204;8.132;2023-08-20T12:49:49;5.85;;;5.25;;
59105;SDS011;44891;50.204;8.132;2023-08-20T12:53:51;6.50;;;5.07;;
59105;SDS011;44891;50.204;8.132;2023-08-20T12:57:54;5.85;;;5.22;;
59105;SDS011;44891;50.204;8.132;2023-08-20T13:01:57;7.00;;;5.30;;
59105;SDS011;44891;50.204;8.132;2023-08-20T13:06:01;6.00;;;4.70;;
59105;SDS011;44891;50.204;8.132;2023-08-20T13:10:04;7.35;;;4.93;;
59105;SDS011;44891;50.204;8.132;2023-08-20T13:14:07;6.30;;;5.13;;
59105;SDS011;44891;50.204;8.132;2023-08-20T13:18:10;5.68;;;5.07;;
59105;SDS011;44891;50.204;8.132;2023-08-20T13:22:15;6.25;;;4.80;;
59105;SDS011;44891;50.204;8.132;2023-08-20T13:26:17;7.10;;;5.10;;
59105;SDS011;44891;50.204;8.132;2023-08-20T13:30:21;6.57;;;5.20;;
59105;SDS011;44891;50.204;8.132;2023-08-20T13:34:23;7.20;;;5.30;;
59105;SDS011;44891;50.204;8.132;2023-08-20T13:38:27;6.03;;;4.75;;
59105;SDS011;44891;50.204;8.132;2023-08-20T13:42:29;9.80;;;6.25;;
59105;SDS011;44891;50.204;8.132;2023-08-20T13:46:31;6.53;;;5.10;;
59105;SDS011;44891;50.204;8.132;2023-08-20T13:50:33;6.15;;;5.55;;
59105;SDS011;44891;50.204;8.132;2023-08-20T13:54:36;5.63;;;5.07;;
59105;SDS011;44891;50.204;8.132;2023-08-20T13:58:38;8.38;;;5.18;;
59105;SDS011;44891;50.204;8.132;2023-08-20T14:02:41;5.30;;;4.80;;
59105;SDS011;44891;50.204;8.132;2023-08-20T14:06:43;5.82;;;4.90;;
59105;SDS011;44891;50.204;8.132;2023-08-20T14:10:47;6.93;;;4.90;;
59105;SDS011;44891;50.204;8.132;2023-08-20T14:14:49;8.32;;;5.40;;
59105;SDS011;44891;50.204;8.132;2023-08-20T14:18:51;7.88;;;5.00;;
59105;SDS011;44891;50.204;8.132;2023-08-20T14:22:53;5.93;;;5.30;;
59105;SDS011;44891;50.204;8.132;2023-08-20T14:26:56;6.82;;;5.13;;
59105;SDS011;44891;50.204;8.132;2023-08-20T14:31:01;6.15;;;4.97;;
59105;SDS011;44891;50.204;8.132;2023-08-20T14:35:04;6.15;;;4.88;;
59105;SDS011;44891;50.204;8.132;2023-08-20T14:39:06;6.47;;;4.97;;
59105;SDS011;44891;50.204;8.132;2023-08-20T14:43:10;7.07;;;5.18;;
59105;SDS011;44891;50.204;8.132;2023-08-20T14:47:13;5.07;;;4.32;;
59105;SDS011;44891;50.204;8.132;2023-08-20T14:51:15;7.13;;;4.75;;
59105;SDS011;44891;50.204;8.132;2023-08-20T14:55:17;7.43;;;4.63;;
59105;SDS011;44891;50.204;8.132;2023-08-20T14:59:21;5.95;;;4.47;;
59105;SDS011;44891;50.204;8.132;2023-08-20T15:03:23;6.20;;;4.70;;
59105;SDS011;44891;50.204;8.132;2023-08-20T15:07:25;5.00;;;4.45;;
59105;SDS011;44891;50.204;8.132;2023-08-20T15:11:27;6.55;;;4.57;;
59105;SDS011;44891;50.204;8.132;2023-08-20T15:15:30;5.68;;;4.40;;
59105;SDS011;44891;50.204;8.132;2023-08-20T15:19:33;6.13;;;4.38;;
59105;SDS011;44891;50.204;8.132;2023-08-20T15:23:35;6.40;;;4.20;;
59105;SDS011;44891;50.204;8.132;2023-08-20T15:27:37;7.85;;;4.50;;
59105;SDS011;44891;50.204;8.132;2023-08-20T15:31:41;7.82;;;4.32;;
59105;SDS011;44891;50.204;8.132;2023-08-20T15:35:43;5.63;;;4.05;;
59105;SDS011;44891;50.204;8.132;2023-08-20T15:39:46;6.38;;;4.25;;
59105;SDS011;44891;50.204;8.132;2023-08-20T15:43:48;6.20;;;4.38;;
59105;SDS011;44891;50.204;8.132;2023-08-20T15:47:51;5.57;;;4.28;;
59105;SDS011;44891;50.204;8.132;2023-08-20T15:51:54;17.25;;;4.50;;
59105;SDS011;44891;50.204;8.132;2023-08-20T15:55:56;7.63;;;4.18;;
59105;SDS011;44891;50.204;8.132;2023-08-20T15:59:58;7.72;;;4.90;;
59105;SDS011;44891;50.204;8.132;2023-08-20T16:04:02;6.70;;;4.43;;
59105;SDS011;44891;50.204;8.132;2023-08-20T16:08:04;6.40;;;4.82;;
59105;SDS011;44891;50.204;8.132;2023-08-20T16:12:06;5.93;;;4.82;;
59105;SDS011;44891;50.204;8.132;2023-08-20T16:16:10;7.10;;;4.68;;
59105;SDS011;44891;50.204;8.132;2023-08-20T16:20:13;6.90;;;4.82;;
59105;SDS011;44891;50.204;8.132;2023-08-20T16:24:16;6.65;;;4.70;;
59105;SDS011;44891;50.204;8.132;2023-08-20T16:28:18;6.43;;;4.97;;
59105;SDS011;44891;50.204;8.132;2023-08-20T16:32:20;7.53;;;4.68;;
59105;SDS011;44891;50.204;8.132;2023-08-20T16:36:23;8.27;;;5.25;;
59105;SDS011;44891;50.204;8.132;2023-08-20T16:40:25;8.93;;;5.25;;
59105;SDS011;44891;50.204;8.132;2023-08-20T16:44:28;6.53;;;5.30;;
59105;SDS011;44891;50.204;8.132;2023-08-20T16:48:30;7.93;;;5.53;;
59105;SDS011;44891;50.204;8.132;2023-08-20T16:52:33;7.68;;;5.40;;
59105;SDS011;44891;50.204;8.132;2023-08-20T16:56:35;7.38;;;5.70;;
59105;SDS011;44891;50.204;8.132;2023-08-20T17:00:38;8.07;;;5.55;;
59105;SDS011;44891;50.204;8.132;2023-08-20T17:04:41;9.32;;;7.82;;
59105;SDS011;44891;50.204;8.132;2023-08-20T17:08:45;6.53;;;5.47;;
59105;SDS011;44891;50.204;8.132;2023-08-20T17:12:47;6.35;;;5.43;;
59105;SDS011;44891;50.204;8.132;2023-08-20T17:16:49;8.02;;;5.45;;
59105;SDS011;44891;50.204;8.132;2023-08-20T17:20:51;8.00;;;5.50;;
59105;SDS011;44891;50.204;8.132;2023-08-20T17:24:55;5.68;;;5.07;;
59105;SDS011;44891;50.204;8.132;2023-08-20T17:28:57;11.77;;;6.05;;
59105;SDS011;44891;50.204;8.132;2023-08-20T17:32:59;7.05;;;5.80;;
59105;SDS011;44891;50.204;8.132;2023-08-20T17:37:01;8.57;;;6.00;;
59105;SDS011;44891;50.204;8.132;2023-08-20T17:41:06;8.25;;;6.25;;
59105;SDS011;44891;50.204;8.132;2023-08-20T17:45:08;9.20;;;7.00;;
59105;SDS011;44891;50.204;8.132;2023-08-20T17:49:10;14.05;;;6.60;;
59105;SDS011;44891;50.204;8.132;2023-08-20T17:53:13;9.52;;;6.57;;
59105;SDS011;44891;50.204;8.132;2023-08-20T17:57:16;8.95;;;7.28;;
59105;SDS011;44891;50.204;8.132;2023-08-20T18:01:18;8.18;;;6.95;;
59105;SDS011;44891;50.204;8.132;2023-08-20T18:05:20;10.15;;;7.40;;
59105;SDS011;44891;50.204;8.132;2023-08-20T18:09:22;14.68;;;7.57;;
59105;SDS011;44891;50.204;8.132;2023-08-20T18:13:26;11.07;;;7.78;;
59105;SDS011;44891;50.204;8.132;2023-08-20T18:17:28;12.88;;;8.05;;
59105;SDS011;44891;50.204;8.132;2023-08-20T18:21:30;15.82;;;8.35;;
59105;SDS011;44891;50.204;8.132;2023-08-20T18:25:32;16.88;;;9.10;;
59105;SDS011;44891;50.204;8.132;2023-08-20T18:29:36;13.48;;;8.38;;
59105;SDS011;44891;50.204;8.132;2023-08-20T18:33:38;14.15;;;8.80;;
59105;SDS011;44891;50.204;8.132;2023-08-20T18:37:40;12.70;;;8.20;;
59105;SDS011;44891;50.204;8.132;2023-08-20T18:41:42;10.07;;;7.50;;
59105;SDS011;44891;50.204;8.132;2023-08-20T18:45:46;13.82;;;8.13;;
59105;SDS011;44891;50.204;8.132;2023-08-20T18:49:48;11.63;;;8.18;;
59105;SDS011;44891;50.204;8.132;2023-08-20T18:53:50;8.95;;;7.60;;
59105;SDS011;44891;50.204;8.132;2023-08-20T18:57:53;11.43;;;7.53;;
59105;SDS011;44891;50.204;8.132;2023-08-20T19:01:57;12.48;;;7.18;;
59105;SDS011;44891;50.204;8.132;2023-08-20T19:05:59;8.90;;;7.20;;
59105;SDS011;44891;50.204;8.132;2023-08-20T19:10:01;8.52;;;6.88;;
59105;SDS011;44891;50.204;8.132;2023-08-20T19:14:03;13.27;;;7.43;;
59105;SDS011;44891;50.204;8.132;2023-08-20T19:18:07;9.00;;;7.15;;
59105;SDS011;44891;50.204;8.132;2023-08-20T19:22:09;11.00;;;7.50;;
59105;SDS011;44891;50.204;8.132;2023-08-20T19:26:11;12.38;;;7.32;;
59105;SDS011;44891;50.204;8.132;2023-08-20T19:30:13;12.18;;;7.20;;
59105;SDS011;44891;50.204;8.132;2023-08-20T19:34:17;9.40;;;7.95;;
59105;SDS011;44891;50.204;8.132;2023-08-20T19:38:19;14.68;;;10.02;;
59105;SDS011;44891;50.204;8.132;2023-08-20T19:42:21;11.25;;;8.57;;
59105;SDS011;44891;50.204;8.132;2023-08-20T19:46:23;11.65;;;8.68;;
59105;SDS011;44891;50.204;8.132;2023-08-20T19:50:27;11.35;;;8.20;;
59105;SDS011;44891;50.204;8.132;2023-08-20T19:54:29;16.90;;;9.57;;
59105;SDS011;44891;50.204;8.132;2023-08-20T19:58:32;12.88;;;9.02;;
59105;SDS011;44891;50.204;8.132;2023-08-20T20:02:34;13.77;;;9.30;;
59105;SDS011;44891;50.204;8.132;2023-08-20T20:06:38;12.25;;;9.18;;
59105;SDS011;44891;50.204;8.132;2023-08-20T20:10:40;12.23;;;9.60;;
59105;SDS011;44891;50.204;8.132;2023-08-20T20:14:42;16.10;;;10.15;;
59105;SDS011;44891;50.204;8.132;2023-08-20T20:18:44;15.73;;;10.07;;
59105;SDS011;44891;50.204;8.132;2023-08-20T20:22:47;11.85;;;8.43;;
59105;SDS011;44891;50.204;8.132;2023-08-20T20:26:50;12.75;;;7.90;;
59105;SDS011;44891;50.204;8.132;2023-08-20T20:30:52;13.05;;;7.20;;
59105;SDS011;44891;50.204;8.132;2023-08-20T20:34:54;13.15;;;7.80;;
59105;SDS011;44891;50.204;8.132;2023-08-20T20:38:59;11.68;;;7.68;;
59105;SDS011;44891;50.204;8.132;2023-08-20T20:43:01;13.13;;;7.60;;
59105;SDS011;44891;50.204;8.132;2023-08-20T20:47:03;8.98;;;7.50;;
59105;SDS011;44891;50.204;8.132;2023-08-20T20:51:05;10.18;;;7.13;;
59105;SDS011;44891;50.204;8.132;2023-08-20T20:55:09;9.77;;;7.65;;
59105;SDS011;44891;50.204;8.132;2023-08-20T20:59:11;9.23;;;7.50;;
59105;SDS011;44891;50.204;8.132;2023-08-20T21:03:13;9.85;;;7.22;;
59105;SDS011;44891;50.204;8.132;2023-08-20T21:07:15;11.25;;;7.55;;
59105;SDS011;44891;50.204;8.132;2023-08-20T21:11:18;10.18;;;7.28;;
59105;SDS011;44891;50.204;8.132;2023-08-20T21:15:20;12.10;;;7.10;;
59105;SDS011;44891;50.204;8.132;2023-08-20T21:19:22;9.77;;;7.38;;
59105;SDS011;44891;50.204;8.132;2023-08-20T21:23:25;8.43;;;7.22;;
59105;SDS011;44891;50.204;8.132;2023-08-20T21:27:28;10.07;;;7.45;;
59105;SDS011;44891;50.204;8.132;2023-08-20T21:31:31;11.52;;;7.70;;
59105;SDS011;44891;50.204;8.132;2023-08-20T21:35:33;8.80;;;7.22;;
59105;SDS011;44891;50.204;8.132;2023-08-20T21:39:35;10.88;;;7.80;;
59105;SDS011;44891;50.204;8.132;2023-08-20T21:43:38;9.02;;;7.47;;
59105;SDS011;44891;50.204;8.132;2023-08-20T21:47:41;10.60;;;7.47;;
59105;SDS011;44891;50.204;8.132;2023-08-20T21:51:47;9.40;;;7.05;;
59105;SDS011;44891;50.204;8.132;2023-08-20T21:55:53;12.90;;;8.25;;
59105;SDS011;44891;50.204;8.132;2023-08-20T21:59:57;11.85;;;7.78;;
59105;SDS011;44891;50.204;8.132;2023-08-20T22:03:59;14.00;;;7.88;;
59105;SDS011;44891;50.204;8.132;2023-08-20T22:08:01;9.30;;;7.70;;
59105;SDS011;44891;50.204;8.132;2023-08-20T22:12:04;28.67;;;8.27;;
59105;SDS011;44891;50.204;8.132;2023-08-20T22:16:07;10.52;;;8.25;;
59105;SDS011;44891;50.204;8.132;2023-08-20T22:20:10;11.77;;;7.35;;
59105;SDS011;44891;50.204;8.132;2023-08-20T22:24:12;10.75;;;7.65;;
59105;SDS011;44891;50.204;8.132;2023-08-20T22:28:19;11.13;;;8.32;;
59105;SDS011;44891;50.204;8.132;2023-08-20T22:32:23;12.40;;;8.52;;
59105;SDS011;44891;50.204;8.132;2023-08-20T22:36:26;14.38;;;8.73;;
59105;SDS011;44891;50.204;8.132;2023-08-20T22:40:28;11.60;;;8.25;;
59105;SDS011;44891;50.204;8.132;2023-08-20T22:44:30;11.63;;;8.27;;
59105;SDS011;44891;50.204;8.132;2023-08-20T22:48:33;13.60;;;8.32;;
59105;SDS011;44891;50.204;8.132;2023-08-20T22:52:35;12.85;;;8.57;;
59105;SDS011;44891;50.204;8.132;2023-08-20T22:56:37;10.43;;;7.85;;
59105;SDS011;44891;50.204;8.132;2023-08-20T23:00:39;11.27;;;8.55;;
59105;SDS011;44891;50.204;8.132;2023-08-20T23:04:43;13.48;;;8.10;;
59105;SDS011;44891;50.204;8.132;2023-08-20T23:08:45;11.10;;;7.63;;
59105;SDS011;44891;50.204;8.132;2023-08-20T23:12:47;10.65;;;8.27;;
59105;SDS011;44891;50.204;8.132;2023-08-20T23:16:49;10.35;;;8.50;;
59105;SDS011;44891;50.204;8.132;2023-08-20T23:20:53;13.20;;;9.43;;
59105;SDS011;44891;50.204;8.132;2023-08-20T23:25:00;12.32;;;9.20;;
59105;SDS011;44891;50.204;8.132;2023-08-20T23:29:02;11.00;;;9.20;;
59105;SDS011;44891;50.204;8.132;2023-08-20T23:33:04;9.52;;;8.25;;
59105;SDS011;44891;50.204;8.132;2023-08-20T23:37:08;12.93;;;8.77;;
59105;SDS011;44891;50.204;8.132;2023-08-20T23:41:11;10.52;;;8.40;;
59105;SDS011;44891;50.204;8.132;2023-08-20T23:45:13;12.85;;;8.45;;
59105;SDS011;44891;50.204;8.132;2023-08-20T23:49:15;12.23;;;8.90;;
59105;SDS011;44891;50.204;8.132;2023-08-20T23:53:19;10.35;;;7.70;;
59105;SDS011;44891;50.204;8.132;2023-08-20T23:57:21;10.30;;;7.15;;
